Naples, Italy

12:55 AM CEST on August 29, 2015 (GMT +0200)
Naples | | Change Station
CLOSE
Current Station
Personal Weather Station
Location: Naples, Campania
Elevation: 108 ft
Nearby Weather Stations

Elev 108 ft 40.84 °N, 14.25 °E | Updated 10 minutes ago

Partly Cloudy
Partly Cloudy
77.3 °F
Feels Like 79 °F
N
0.0
Wind Variable Wind from South
Gusts 4.0 mph

Today
High -- | Low -- °F
--% Chance of Precip.
Yesterday
High -- | Low -- °F
Precip. -- in
6:26 AM 7:40 PM
Waxing Gibbous, 99% visible
Pressure 30.12 in
Visibility 6.2 miles
Clouds Few 3000 ft
Heat Index 79 °F
Dew Point 62 °F
Humidity 59%
Rainfall in
Snow Depth Not available.
UV 0 out of 12
Pollen Not available.
Air Quality Not available.
Flu Activity Not available.
METAR LIRN 282220Z 00000KT 9999 FEW030 25/20 Q1020
Pressure 30.12 in
Visibility 6.2 miles
Clouds Few 3000 ft
Heat Index 79 °F
Dew Point 62 °F
Humidity 59%
Rainfall in
Snow Depth Not available.
UV 0 out of 12
Pollen Not available.
Air Quality Not available.
Flu Activity Not available.
METAR LIRN 282220Z 00000KT 9999 FEW030 25/20 Q1020

10-Day Weather Forecast

×

Almanac

Astronomy

Aug. 29, 2015 Rise Set
Actual Time
Civil Twilight
Nautical Twilight
Astronomical Twilight
Moon
Length of Visible Light
Length of Day
Tomorrow will be .
, % of the Moon is Illuminated

Today's Extremes

Country Highs Country Lows

Community

WunderPhotos

Upload Photos

1,850,516 photos uploaded!

WunderBlogs® & News

Nearby

Air Quality

  Air Quality AQ Index Pollutant
Not available.

Snow Depth

Station Depth Elevation

Earthquake Activity

City Distance Mag. Time & Date
Minimum magnitude displayed is 2.5.

Coastal Water Temperatures

Place Temperature

Stations

Nearby Weather Stations

Station Location Temp. Windchill Dew Point Humidity Wind Precip. Elev Updated Type